Time;durP1;ratioP1;P1;durP2;ratioP2;P2;SDS_P1;SDS_P2;PMS_P1;PMS_P2;Temp;Humidity;BMP_temperature;BMP_pressure;BME280_temperature;BME280_humidity;BME280_pressure;Samples;Min_cycle;Max_cycle;Signal;HPM_P1;HPM_P2
2021/06/06 06:50:16;;;;;;;9.25;6.25;;;21.80;64.60;;;;;;5075296;28;20071;-75
2021/06/06 06:52:44;;;;;;;14.48;6.30;;;21.80;64.90;;;;;;5055240;28;20040;-75
2021/06/06 06:55:17;;;;;;;17.98;6.28;;;21.80;64.90;;;;;;5056937;28;20439;-75
2021/06/06 06:57:44;;;;;;;14.63;6.88;;;21.90;64.50;;;;;;5057091;28;20036;-76
2021/06/06 12:38:00;;;;;;;10.50;6.97;;;23.80;58.60;;;;;;5035589;28;20053;-78
2021/06/06 12:40:34;;;;;;;9.65;7.03;;;23.60;59.80;;;;;;5008708;28;20054;-78
2021/06/06 12:43:01;;;;;;;11.32;6.45;;;23.50;60.60;;;;;;5004793;28;20038;-78
2021/06/06 12:45:30;;;;;;;9.23;6.70;;;23.40;61.10;;;;;;4988744;28;20049;-75
2021/06/06 12:48:27;;;;;;;14.95;7.68;;;23.40;61.60;;;;;;5022249;28;20037;-74
2021/06/06 12:50:55;;;;;;;11.57;7.00;;;23.30;61.40;;;;;;4995879;28;20038;-78
2021/06/06 12:53:40;;;;;;;10.52;7.20;;;23.20;62.00;;;;;;4999930;28;20394;-78
2021/06/06 12:56:30;;;;;;;10.57;6.70;;;23.10;61.70;;;;;;4988628;28;20041;-78
2021/06/06 12:59:34;;;;;;;11.27;7.32;;;23.00;62.70;;;;;;5012940;28;20045;-78
2021/06/06 13:02:22;;;;;;;9.43;6.63;;;22.90;62.80;;;;;;4987915;28;20079;-77
2021/06/06 13:05:12;;;;;;;12.95;6.60;;;22.80;63.40;;;;;;5018371;28;20052;-77
2021/06/06 13:07:39;;;;;;;9.90;6.32;;;22.80;63.50;;;;;;5015260;28;20133;-77
2021/06/06 13:10:52;;;;;;;9.27;6.40;;;22.70;64.20;;;;;;5011046;28;20053;-75
2021/06/06 13:13:39;;;;;;;13.35;6.63;;;22.70;63.90;;;;;;5008086;28;20069;-79
2021/06/06 13:17:08;;;;;;;10.93;7.38;;;22.70;64.60;;;;;;5007358;28;20083;-79
2021/06/06 13:19:37;;;;;;;12.02;6.88;;;22.60;64.60;;;;;;5024742;28;20042;-78
2021/06/06 13:28:56;;;;;;;10.15;6.32;;;22.60;65.80;;;;;;5013183;28;20519;-77
2021/06/06 13:32:00;;;;;;;11.18;6.28;;;22.50;66.00;;;;;;4995641;28;20049;-76
2021/06/06 13:34:27;;;;;;;9.52;6.43;;;22.40;66.40;;;;;;5012780;28;20450;-76
2021/06/06 13:36:55;;;;;;;9.60;5.63;;;22.40;66.70;;;;;;5001460;28;20053;-76
2021/06/06 13:39:41;;;;;;;8.60;5.65;;;22.30;67.30;;;;;;5035330;28;20048;-77
2021/06/06 13:44:54;;;;;;;8.98;5.80;;;22.30;67.80;;;;;;5017530;28;20036;-77
2021/06/06 13:47:58;;;;;;;9.07;5.32;;;22.30;68.10;;;;;;5014906;28;20056;-77
2021/06/06 13:50:44;;;;;;;7.85;5.10;;;22.20;67.70;;;;;;5014751;28;20045;-77
2021/06/06 13:53:30;;;;;;;8.43;4.80;;;22.20;67.90;;;;;;4998572;28;20068;-77
2021/06/06 13:55:57;;;;;;;8.60;5.30;;;22.10;68.20;;;;;;4998339;28;20129;-76
2021/06/06 13:58:44;;;;;;;8.45;5.20;;;22.20;68.60;;;;;;5018402;28;20045;-77
2021/06/06 14:01:10;;;;;;;8.50;5.40;;;22.20;68.50;;;;;;5032288;28;20521;-77
2021/06/06 14:09:17;;;;;;;10.57;5.15;;;22.80;66.90;;;;;;5017617;28;20048;-76
2021/06/06 14:12:09;;;;;;;8.88;5.18;;;23.10;66.10;;;;;;5015948;28;20529;-77
2021/06/06 14:14:36;;;;;;;7.40;4.60;;;23.40;65.20;;;;;;5018246;28;20037;-77
2021/06/06 14:17:22;;;;;;;8.30;4.18;;;23.70;64.50;;;;;;5021771;28;20049;-76
2021/06/06 14:19:48;;;;;;;8.15;4.45;;;23.90;63.60;;;;;;5035894;28;20060;-76
2021/06/06 14:22:33;;;;;;;12.30;4.70;;;24.10;63.30;;;;;;5018347;28;20049;-76
2021/06/06 14:24:59;;;;;;;7.28;4.80;;;24.50;62.30;;;;;;5008314;28;20048;-77
2021/06/06 14:30:15;;;;;;;6.78;4.32;;;24.90;60.60;;;;;;5040628;28;20319;-77
2021/06/06 14:33:00;;;;;;;7.30;4.18;;;25.20;60.40;;;;;;5038149;28;20614;-77
2021/06/06 14:35:46;;;;;;;10.23;4.30;;;25.50;59.60;;;;;;5040631;28;20045;-74
2021/06/06 14:38:13;;;;;;;7.57;4.57;;;25.60;59.00;;;;;;5024863;28;20041;-77
2021/06/06 14:40:40;;;;;;;6.20;3.78;;;25.60;58.60;;;;;;5055414;28;20041;-78
2021/06/06 14:43:26;;;;;;;6.65;3.13;;;25.70;58.00;;;;;;5031537;28;20064;-77
2021/06/06 14:45:54;;;;;;;6.40;3.25;;;25.70;57.80;;;;;;5001316;28;20048;-77
2021/06/06 14:54:34;;;;;;;6.43;3.75;;;25.70;57.10;;;;;;5038291;28;20044;-77
2021/06/06 14:57:18;;;;;;;9.93;3.55;;;25.70;56.90;;;;;;5037489;28;20072;-78
2021/06/06 14:59:44;;;;;;;6.07;3.50;;;25.60;56.70;;;;;;5055067;28;20037;-77
2021/06/06 15:02:13;;;;;;;9.73;5.60;;;25.60;56.90;;;;;;5036546;28;20405;-77
2021/06/06 15:04:41;;;;;;;7.63;4.07;;;25.70;56.90;;;;;;5055013;28;20060;-76
2021/06/06 15:10:31;;;;;;;6.32;4.03;;;25.80;57.40;;;;;;5052501;28;20413;-78
2021/06/06 15:12:57;;;;;;;5.85;3.70;;;25.60;57.70;;;;;;5017527;28;20064;-77
2021/06/06 15:15:25;;;;;;;7.20;3.90;;;25.50;58.30;;;;;;5017294;28;20096;-79
2021/06/06 15:17:52;;;;;;;9.35;3.63;;;25.40;58.40;;;;;;5035310;28;20125;-80
2021/06/06 15:20:37;;;;;;;7.70;3.65;;;25.30;57.80;;;;;;5034492;28;20049;-75
2021/06/06 15:23:06;;;;;;;5.88;3.03;;;25.20;57.30;;;;;;5034335;28;20052;-79
2021/06/06 15:28:21;;;;;;;6.85;3.30;;;25.00;58.30;;;;;;5023556;28;20540;-79
2021/06/06 15:33:35;;;;;;;5.93;3.53;;;25.00;58.80;;;;;;5019583;28;20514;-78
2021/06/06 15:36:04;;;;;;;6.88;3.40;;;25.00;58.30;;;;;;5034561;28;20136;-79
2021/06/06 15:38:32;;;;;;;6.70;3.38;;;25.20;58.00;;;;;;5016599;28;20128;-79
2021/06/06 15:41:04;;;;;;;5.95;3.15;;;25.20;57.20;;;;;;5016393;28;20037;-77
2021/06/06 15:43:50;;;;;;;10.07;3.83;;;25.20;57.30;;;;;;5016501;28;20045;-78
2021/06/06 15:46:17;;;;;;;10.07;4.28;;;25.20;57.30;;;;;;5018372;28;20037;-79
2021/06/06 15:51:51;;;;;;;6.93;3.75;;;25.00;57.60;;;;;;5019546;28;20065;-77
2021/06/06 15:54:24;;;;;;;6.30;3.63;;;24.80;57.60;;;;;;5016449;28;20038;-79
2021/06/06 15:56:50;;;;;;;6.28;3.80;;;24.70;57.80;;;;;;5034134;28;20045;-79
2021/06/06 15:59:17;;;;;;;5.85;3.80;;;24.50;58.10;;;;;;5016452;28;20045;-77
2021/06/06 16:04:28;;;;;;;7.72;3.70;;;24.20;58.00;;;;;;5021383;28;20075;-77
2021/06/06 16:06:54;;;;;;;8.07;3.78;;;24.10;58.60;;;;;;5016161;28;20056;-79
2021/06/06 16:12:43;;;;;;;6.20;3.90;;;23.90;59.50;;;;;;5044969;28;20554;-78
2021/06/06 16:15:10;;;;;;;7.22;3.83;;;23.90;59.50;;;;;;5025847;28;20088;-77
2021/06/06 16:17:37;;;;;;;7.07;4.15;;;23.80;59.70;;;;;;5012803;28;20577;-77
2021/06/06 16:20:07;;;;;;;5.95;3.90;;;23.80;60.00;;;;;;5035391;28;20108;-77
2021/06/06 16:22:51;;;;;;;7.70;4.68;;;23.80;59.80;;;;;;5002286;28;20132;-77
2021/06/06 16:25:23;;;;;;;6.05;3.83;;;23.90;60.60;;;;;;5041865;28;20044;-78
2021/06/06 16:27:50;;;;;;;7.68;4.03;;;23.70;60.30;;;;;;5036869;28;20132;-78
2021/06/06 16:30:21;;;;;;;7.50;4.60;;;23.70;60.30;;;;;;5039097;28;20125;-78
2021/06/06 16:32:48;;;;;;;6.90;4.55;;;23.60;60.40;;;;;;5035652;28;20072;-77
2021/06/06 16:35:14;;;;;;;8.18;4.25;;;23.70;60.70;;;;;;5014832;28;20045;-78
2021/06/06 16:37:41;;;;;;;7.80;4.07;;;23.70;60.20;;;;;;5015364;28;20041;-77
2021/06/06 16:40:08;;;;;;;6.50;4.28;;;23.60;60.30;;;;;;5015563;28;20041;-78
2021/06/06 16:42:36;;;;;;;6.80;3.97;;;23.50;61.30;;;;;;5022846;28;20037;-77
2021/06/06 16:45:08;;;;;;;6.90;4.07;;;23.40;61.30;;;;;;5013437;28;20037;-77
2021/06/06 16:47:35;;;;;;;6.85;4.07;;;23.40;61.70;;;;;;5027953;28;20041;-78
2021/06/06 16:50:02;;;;;;;9.30;4.60;;;23.20;61.20;;;;;;5028067;28;20604;-77
2021/06/06 16:52:29;;;;;;;10.20;4.85;;;23.20;62.00;;;;;;5045687;28;20049;-78
2021/06/06 16:58:21;;;;;;;6.97;4.13;;;23.10;62.20;;;;;;5048825;28;20126;-77
2021/06/06 17:00:51;;;;;;;8.85;4.50;;;23.10;62.20;;;;;;5034398;28;20045;-79
2021/06/06 17:03:37;;;;;;;8.10;4.80;;;23.10;62.40;;;;;;5035497;28;20106;-77
2021/06/06 17:06:22;;;;;;;12.07;5.13;;;23.00;62.40;;;;;;5033233;28;20494;-78
2021/06/06 17:08:49;;;;;;;9.38;4.65;;;23.10;62.40;;;;;;5020989;28;20125;-77
2021/06/06 17:11:18;;;;;;;10.15;5.68;;;23.10;62.50;;;;;;5045923;28;20111;-77
2021/06/06 17:13:47;;;;;;;11.52;4.95;;;23.10;62.30;;;;;;5029266;28;20036;-77
2021/06/06 17:16:33;;;;;;;6.82;4.53;;;23.10;62.40;;;;;;5034791;28;20366;-77
2021/06/06 17:18:59;;;;;;;8.50;4.75;;;23.10;62.30;;;;;;5027493;28;20034;-73
2021/06/06 17:21:47;;;;;;;10.00;4.75;;;23.10;62.10;;;;;;5014789;28;20128;-74
2021/06/06 17:27:16;;;;;;;11.40;4.85;;;23.10;62.70;;;;;;5032442;28;20390;-75
2021/06/06 17:29:43;;;;;;;10.10;5.45;;;23.00;62.90;;;;;;4998553;28;20033;-74
2021/06/06 17:32:09;;;;;;;8.85;4.80;;;22.90;62.70;;;;;;4998497;28;20081;-75
2021/06/06 17:34:36;;;;;;;9.80;4.78;;;22.90;62.90;;;;;;5031362;28;20115;-75
2021/06/06 17:37:02;;;;;;;8.27;4.22;;;22.80;63.60;;;;;;5017886;28;20093;-74
2021/06/06 17:39:28;;;;;;;8.13;4.47;;;22.80;63.20;;;;;;5032940;28;20037;-73
2021/06/06 17:41:55;;;;;;;8.10;4.68;;;22.80;64.10;;;;;;5014973;28;20045;-74
2021/06/06 17:44:22;;;;;;;8.00;4.70;;;22.70;64.20;;;;;;5030949;28;20033;-72
2021/06/06 17:46:49;;;;;;;7.43;4.63;;;22.70;64.20;;;;;;5032461;28;20050;-73
2021/06/06 17:49:17;;;;;;;7.38;5.10;;;22.70;64.50;;;;;;5018669;28;20133;-75
2021/06/06 17:51:45;;;;;;;9.52;4.68;;;22.60;64.60;;;;;;5002472;28;20068;-72
2021/06/06 17:54:13;;;;;;;7.55;5.00;;;22.60;64.80;;;;;;5006999;28;20033;-73
2021/06/06 17:56:57;;;;;;;8.20;4.68;;;22.50;65.00;;;;;;5002342;28;20041;-73
2021/06/06 17:59:24;;;;;;;7.03;4.63;;;22.50;65.20;;;;;;5018386;28;20088;-75
2021/06/06 18:01:51;;;;;;;8.95;4.80;;;22.40;65.60;;;;;;5002186;28;20128;-73
2021/06/06 18:07:04;;;;;;;9.25;5.05;;;22.30;65.70;;;;;;5036445;28;20072;-72
2021/06/06 18:09:32;;;;;;;7.18;4.60;;;22.20;65.80;;;;;;5013116;28;20048;-72
2021/06/06 18:11:59;;;;;;;9.40;5.47;;;22.20;66.00;;;;;;5025845;28;20405;-72
2021/06/06 18:14:31;;;;;;;11.60;5.90;;;22.10;65.80;;;;;;5004965;28;20482;-72
2021/06/06 18:16:59;;;;;;;12.15;6.70;;;22.10;66.40;;;;;;5055797;28;20446;-73
2021/06/06 18:19:26;;;;;;;12.70;8.60;;;22.00;66.50;;;;;;5038342;28;20043;-72
2021/06/06 18:21:54;;;;;;;9.20;6.05;;;22.00;66.60;;;;;;5031374;28;20457;-72
2021/06/06 18:24:25;;;;;;;8.65;5.57;;;22.00;66.80;;;;;;5020979;28;20560;-72
2021/06/06 18:29:39;;;;;;;8.73;5.70;;;21.90;67.10;;;;;;5027635;28;20044;-73
2021/06/06 18:32:07;;;;;;;9.27;5.68;;;21.80;67.10;;;;;;5035920;28;20042;-72
2021/06/06 18:34:33;;;;;;;11.50;5.75;;;21.80;67.10;;;;;;5054203;28;20547;-72
2021/06/06 18:37:01;;;;;;;8.60;5.32;;;21.80;67.10;;;;;;5030152;28;20049;-73
2021/06/06 18:39:27;;;;;;;9.80;5.53;;;21.80;67.30;;;;;;5037682;28;20033;-72
2021/06/06 18:42:12;;;;;;;9.32;5.10;;;21.80;67.50;;;;;;5023630;28;20123;-73
2021/06/06 18:44:58;;;;;;;9.45;5.80;;;21.80;67.50;;;;;;5051457;28;20099;-72
2021/06/06 18:47:27;;;;;;;8.13;5.63;;;21.70;67.60;;;;;;5037437;28;20049;-72
2021/06/06 18:49:55;;;;;;;8.38;5.20;;;21.70;67.80;;;;;;5037351;28;20029;-72
2021/06/06 18:52:23;;;;;;;8.73;5.32;;;21.70;68.20;;;;;;5054623;28;20524;-72
2021/06/06 18:54:52;;;;;;;10.95;5.40;;;21.60;68.80;;;;;;5001034;28;20041;-73
2021/06/06 18:57:19;;;;;;;9.80;6.03;;;21.60;69.00;;;;;;5000926;28;20486;-73
2021/06/06 18:59:46;;;;;;;7.95;5.13;;;21.60;68.90;;;;;;5000020;28;20399;-73
2021/06/06 19:02:14;;;;;;;7.78;5.03;;;21.60;68.90;;;;;;5004658;28;20041;-73
2021/06/06 19:04:40;;;;;;;9.77;5.38;;;21.60;69.10;;;;;;5037182;28;20033;-72
2021/06/06 19:07:25;;;;;;;12.32;5.35;;;21.60;68.60;;;;;;5037121;28;20083;-72
2021/06/06 19:09:52;;;;;;;7.05;4.45;;;21.60;69.10;;;;;;5054919;28;20126;-73
2021/06/06 19:12:36;;;;;;;10.18;4.80;;;21.60;69.10;;;;;;5039361;28;20430;-72
2021/06/06 19:15:08;;;;;;;7.97;5.45;;;21.60;69.50;;;;;;5034983;28;20057;-72
2021/06/06 19:17:53;;;;;;;9.15;5.00;;;21.60;69.50;;;;;;5017302;28;20042;-72
2021/06/06 19:20:21;;;;;;;8.35;5.55;;;21.50;69.70;;;;;;5038151;28;20045;-73
2021/06/06 19:23:09;;;;;;;12.05;5.28;;;21.50;69.50;;;;;;5017277;28;20069;-72
2021/06/06 19:25:39;;;;;;;8.38;5.32;;;21.50;69.60;;;;;;5016932;28;20041;-72
2021/06/06 19:28:27;;;;;;;8.77;5.60;;;21.60;69.70;;;;;;5017207;28;20041;-73
2021/06/06 19:30:54;;;;;;;10.20;5.82;;;21.50;69.60;;;;;;5034576;28;20037;-71
2021/06/06 19:36:28;;;;;;;9.00;5.38;;;21.50;69.90;;;;;;5033666;28;20040;-72
2021/06/06 19:39:14;;;;;;;9.05;5.25;;;21.50;70.10;;;;;;5051100;28;20044;-73
2021/06/06 19:41:40;;;;;;;11.10;6.40;;;21.50;70.00;;;;;;5018301;28;20112;-72
2021/06/06 19:44:08;;;;;;;7.75;5.20;;;21.50;69.60;;;;;;5025542;28;20061;-75
2021/06/06 19:46:37;;;;;;;8.50;6.03;;;21.50;70.30;;;;;;5054178;28;20441;-75
2021/06/06 19:49:22;;;;;;;8.55;5.30;;;21.40;70.30;;;;;;5019961;28;20107;-75
2021/06/06 19:51:48;;;;;;;7.35;5.10;;;21.50;70.30;;;;;;5054080;28;20045;-75
2021/06/06 19:54:14;;;;;;;10.77;5.72;;;21.50;70.60;;;;;;5036264;28;20480;-75
2021/06/06 19:56:41;;;;;;;11.57;5.65;;;21.50;70.60;;;;;;5036171;28;20055;-75
2021/06/06 19:59:07;;;;;;;10.93;5.70;;;21.50;70.70;;;;;;5019364;28;20044;-75
2021/06/06 20:01:35;;;;;;;7.78;5.22;;;21.50;70.80;;;;;;5016117;28;20045;-75
2021/06/06 20:04:03;;;;;;;8.73;5.88;;;21.40;70.70;;;;;;5032762;28;20587;-75
2021/06/06 20:06:29;;;;;;;8.35;5.07;;;21.40;70.50;;;;;;5036082;28;20037;-75
2021/06/06 20:08:57;;;;;;;8.05;4.97;;;21.40;70.60;;;;;;5053341;28;20393;-75
2021/06/06 20:11:30;;;;;;;8.23;5.60;;;21.40;70.40;;;;;;5053585;28;20473;-75
2021/06/06 20:13:58;;;;;;;11.38;6.38;;;21.40;70.30;;;;;;5019326;28;20064;-75
2021/06/06 20:16:45;;;;;;;9.18;5.97;;;21.40;70.20;;;;;;5035263;28;20053;-75
2021/06/06 20:19:11;;;;;;;10.18;5.90;;;21.40;70.30;;;;;;5035781;28;20029;-75
2021/06/06 20:21:48;;;;;;;10.15;5.75;;;21.40;70.30;;;;;;5019501;28;20119;-75
2021/06/06 20:24:18;;;;;;;11.27;6.53;;;21.40;70.20;;;;;;5019200;28;20489;-75
2021/06/06 20:27:04;;;;;;;10.65;6.38;;;21.40;70.20;;;;;;5053484;28;20053;-75
2021/06/06 20:29:31;;;;;;;11.88;6.10;;;21.40;70.20;;;;;;5016136;28;20041;-75
2021/06/06 20:32:00;;;;;;;10.63;5.45;;;21.40;70.30;;;;;;5038295;28;20505;-75
2021/06/06 20:34:49;;;;;;;9.77;5.25;;;21.40;70.20;;;;;;5018960;28;20060;-75
2021/06/06 20:37:36;;;;;;;9.93;6.13;;;21.40;69.60;;;;;;5019001;28;20068;-75
2021/06/06 20:43:10;;;;;;;8.48;5.30;;;21.30;70.00;;;;;;5053059;28;20492;-75
2021/06/06 20:45:39;;;;;;;11.40;5.35;;;21.30;70.00;;;;;;5018565;28;20033;-75
2021/06/06 20:48:12;;;;;;;8.77;5.30;;;21.30;70.10;;;;;;5018759;28;20048;-75
2021/06/06 20:50:38;;;;;;;8.13;4.80;;;21.30;70.10;;;;;;5035071;28;20124;-75
2021/06/06 20:53:42;;;;;;;8.95;5.10;;;21.30;70.10;;;;;;5053401;28;20536;-75
2021/06/06 20:56:09;;;;;;;10.15;5.10;;;21.30;70.00;;;;;;5035134;28;20041;-75
2021/06/06 20:59:13;;;;;;;8.10;4.68;;;21.30;70.00;;;;;;5052736;28;20033;-75
2021/06/06 21:01:39;;;;;;;7.53;4.65;;;21.30;70.10;;;;;;5034880;28;20102;-75
2021/06/06 21:04:05;;;;;;;9.60;4.90;;;21.30;69.60;;;;;;5017547;28;20044;-75
2021/06/06 21:06:31;;;;;;;;;;;21.30;70.30;;;;;;5053074;28;20436;-75
2021/06/06 21:12:01;;;;;;;9.65;4.75;;;21.20;70.40;;;;;;5033242;28;20437;-75
2021/06/06 21:14:28;;;;;;;7.70;4.85;;;21.20;71.00;;;;;;5023709;28;20041;-75
2021/06/06 21:16:54;;;;;;;10.63;5.20;;;21.10;70.70;;;;;;5033845;28;20044;-75
2021/06/06 21:19:21;;;;;;;9.93;4.65;;;21.10;71.50;;;;;;5034098;28;20507;-75
2021/06/06 21:22:05;;;;;;;7.30;4.40;;;21.10;71.20;;;;;;5033282;28;20048;-75
2021/06/06 21:24:32;;;;;;;10.68;5.28;;;21.10;71.90;;;;;;5014973;28;20037;-75
2021/06/06 21:26:59;;;;;;;10.13;4.95;;;21.00;72.20;;;;;;5044589;28;20045;-75
2021/06/06 21:29:25;;;;;;;8.40;5.03;;;20.90;72.70;;;;;;5052418;28;20075;-75
2021/06/06 21:32:10;;;;;;;11.52;4.63;;;20.90;73.20;;;;;;5014944;28;20053;-75
2021/06/06 21:34:36;;;;;;;9.30;5.05;;;20.90;73.20;;;;;;5042672;28;20041;-75
2021/06/06 21:37:02;;;;;;;;;;;20.80;72.90;;;;;;5033701;28;20057;-75
2021/06/06 21:39:29;;;;;;;10.07;5.65;;;20.80;72.10;;;;;;5052176;28;20361;-74
2021/06/06 21:42:14;;;;;;;12.02;7.30;;;20.80;72.70;;;;;;5034679;28;20045;-74
2021/06/06 21:44:40;;;;;;;13.25;6.72;;;20.80;73.20;;;;;;5033942;28;20413;-74
2021/06/06 21:47:06;;;;;;;11.43;5.53;;;20.90;73.60;;;;;;5034483;28;20045;-74
2021/06/06 21:49:51;;;;;;;13.15;5.72;;;20.80;73.50;;;;;;5052206;28;20413;-74
2021/06/06 21:52:36;;;;;;;10.75;5.82;;;20.80;73.50;;;;;;5051896;28;20045;-75
2021/06/06 21:55:04;;;;;;;9.48;5.88;;;20.80;73.70;;;;;;5034101;28;20045;-74
2021/06/06 21:57:31;;;;;;;11.68;6.32;;;20.80;73.70;;;;;;5017254;28;20088;-75
2021/06/06 21:59:57;;;;;;;11.60;6.55;;;20.80;73.30;;;;;;5034185;28;20033;-75
2021/06/06 22:02:23;;;;;;;;;;;20.80;74.00;;;;;;5034743;28;20060;-75
2021/06/06 22:05:09;;;;;;;15.95;7.05;;;20.80;73.30;;;;;;5051104;28;20015;-75
2021/06/06 22:07:54;;;;;;;8.65;4.85;;;20.80;73.80;;;;;;5034311;28;20076;-75
2021/06/06 22:10:25;;;;;;;9.82;4.80;;;20.80;74.10;;;;;;5034097;28;20431;-75
2021/06/06 22:12:51;;;;;;;8.27;4.88;;;20.70;74.40;;;;;;5033820;28;20033;-75
2021/06/06 22:15:35;;;;;;;8.20;4.60;;;20.70;74.70;;;;;;5034199;28;20433;-75
2021/06/06 22:18:05;;;;;;;8.38;4.82;;;20.70;74.90;;;;;;5034302;28;20052;-75
2021/06/06 22:21:28;;;;;;;8.50;4.60;;;20.60;74.90;;;;;;5018454;28;20089;-75
2021/06/06 22:24:50;;;;;;;8.32;4.60;;;20.60;74.80;;;;;;5034106;28;20052;-75
2021/06/06 22:31:53;;;;;;;7.28;4.13;;;20.50;75.00;;;;;;5052126;28;20072;-76
2021/06/06 22:35:15;;;;;;;6.65;4.25;;;20.50;75.00;;;;;;5037436;28;20413;-75
2021/06/06 22:38:37;;;;;;;10.98;4.85;;;20.50;75.20;;;;;;5049676;28;20053;-76
2021/06/06 22:45:40;;;;;;;9.90;4.80;;;20.40;75.50;;;;;;5044964;28;20052;-75
2021/06/06 22:52:44;;;;;;;7.57;4.38;;;20.40;75.70;;;;;;5042288;28;20051;-76
2021/06/06 22:56:06;;;;;;;8.60;4.18;;;20.40;75.80;;;;;;4997692;28;20049;-76
2021/06/06 22:59:28;;;;;;;9.45;4.32;;;20.30;76.00;;;;;;5015463;28;20512;-74
2021/06/06 23:02:50;;;;;;;12.13;4.38;;;20.30;76.50;;;;;;5015467;28;20557;-75
2021/06/06 23:06:12;;;;;;;10.65;4.72;;;20.20;76.80;;;;;;5015182;28;20065;-75
2021/06/06 23:09:34;;;;;;;12.68;5.00;;;20.20;77.20;;;;;;4997652;28;20464;-75
2021/06/06 23:12:56;;;;;;;8.27;4.55;;;20.10;77.40;;;;;;5014998;28;20080;-75
2021/06/06 23:15:22;;;;;;;13.90;5.60;;;20.10;77.70;;;;;;5015092;28;20429;-75
2021/06/06 23:20:52;;;;;;;12.27;4.97;;;20.10;76.80;;;;;;5014955;28;19928;-75
2021/06/06 23:23:18;;;;;;;8.93;4.90;;;20.10;78.00;;;;;;4997476;28;20053;-75
2021/06/06 23:25:44;;;;;;;8.57;4.88;;;20.10;78.30;;;;;;4998676;28;20125;-76
2021/06/06 23:28:29;;;;;;;12.48;5.25;;;20.10;79.40;;;;;;5000687;28;20073;-75
2021/06/06 23:30:56;;;;;;;11.82;5.32;;;20.10;78.60;;;;;;5034589;28;20447;-75
2021/06/06 23:33:22;;;;;;;7.95;4.43;;;20.10;78.60;;;;;;5034929;28;20081;-75
2021/06/06 23:36:07;;;;;;;7.50;4.80;;;20.10;78.60;;;;;;5000474;28;20048;-74
2021/06/06 23:41:18;;;;;;;9.57;4.57;;;20.10;78.70;;;;;;5054325;28;20520;-74
2021/06/06 23:43:44;;;;;;;8.40;4.47;;;20.00;78.70;;;;;;5036248;28;20087;-74
2021/06/06 23:48:56;;;;;;;7.53;4.10;;;20.00;78.80;;;;;;5039142;28;20583;-74
2021/06/06 23:51:42;;;;;;;7.25;4.50;;;19.90;78.90;;;;;;5019703;28;20064;-74
2021/06/06 23:54:10;;;;;;;9.60;5.05;;;19.90;79.00;;;;;;5019875;28;20045;-74
2021/06/06 23:56:38;;;;;;;8.40;4.28;;;19.90;79.20;;;;;;5036326;28;20041;-75
2021/06/06 23:59:23;;;;;;;10.60;5.10;;;19.90;79.10;;;;;;5036279;28;20065;-76
